Ahwahnee, CA

5:14 PM PDT on April 25, 2015 (GMT -0700)
Merced Municipal-Macready | | Change Station
CLOSE
Current Station
Airport
Location: Merced,
Elevation: 154 ft
Nearby Weather Stations

Elev 154 ft 37.28 °N, 120.51 °W | Updated 21 minutes ago

Overcast
Overcast
69 °F
Feels Like 69 °F
N
14
Wind Variable Wind from NW

Today
High -- | Low -- °F
--% Chance of Precip.
Yesterday
High -- | Low -- °F
Precip. -- in
6:11 AM 7:43 PM
Waxing Crescent, 50% visible
Pressure 29.90 in
Visibility 10.0 miles
Clouds Few 5500 ft
Dew Point 45 °F
Humidity 42%
Rainfall 0.07 in
Snow Depth Not available.
UV 3 out of 12
Pollen 5.20 out of 12
Air Quality Not available.
Flu Activity Sporadic
METAR KMCE 252353Z AUTO 31012KT 10SM FEW055 21/07 A2990 RMK AO2 SLP123 T02060072 10211 20144 55008

More Conditions Fewer Conditions

Pressure 29.90 in
Visibility 10.0 miles
Clouds Few 5500 ft
Dew Point 45 °F
Humidity 42%
Rainfall 0.07 in
Snow Depth Not available.
UV 3 out of 12
Pollen 5.20 out of 12
Air Quality Not available.
Flu Activity Sporadic
METAR KMCE 252353Z AUTO 31012KT 10SM FEW055 21/07 A2990 RMK AO2 SLP123 T02060072 10211 20144 55008

More Conditions Fewer Conditions

10-Day Weather Forecast

Almanac

Astronomy

Apr. 25, 2015 Rise Set
Actual Time
Civil Twilight
Nautical Twilight
Astronomical Twilight
Moon
Length of Visible Light
Length of Day
Tomorrow will be .
, % of the Moon is Illuminated

Today's Extremes

State Highs State Lows

Community

WunderPhotos

Upload Photos

1,816,855 photos uploaded!

WunderBlogs® & News

Nearby

Air Quality

  Air Quality AQ Index Pollutant
Not available.

Snow Depth

Station Depth Elevation

Earthquake Activity

City Distance Mag. Time & Date
Minimum magnitude displayed is 2.5.

Coastal Water Temperatures

Place Temperature

Stations

Nearby Weather Stations

Station Location Temp. Windchill Dew Point Humidity Wind Precip. Elev Updated Type